createdAt,value
2023-03-29T06:20:23.791Z,4.01
2023-03-29T06:30:22.818Z,4.19
2023-03-29T06:40:23.004Z,4.37
2023-03-29T06:50:22.648Z,4.59
2023-03-29T07:00:22.714Z,4.90
2023-03-29T07:10:22.990Z,5.37
2023-03-29T07:20:22.841Z,5.66
2023-03-29T07:30:22.836Z,6.08
2023-03-29T07:40:22.777Z,6.10
2023-03-29T07:50:22.721Z,6.35
2023-03-29T08:00:22.988Z,6.41
2023-03-29T08:10:22.809Z,6.36
2023-03-29T08:20:23.024Z,6.36
2023-03-29T08:30:22.890Z,6.57
2023-03-29T08:40:22.755Z,6.76
2023-03-29T08:50:22.916Z,6.88
2023-03-29T09:00:22.679Z,7.18
2023-03-29T09:10:23.067Z,7.40
2023-03-29T09:20:23.031Z,7.43
2023-03-29T09:30:22.649Z,7.52
2023-03-29T09:40:22.811Z,7.25
2023-03-29T09:50:30.977Z,7.19
2023-03-29T10:00:22.773Z,7.25
2023-03-29T10:10:22.859Z,7.31
2023-03-29T10:20:22.644Z,7.98
2023-03-29T10:30:22.750Z,8.32
2023-03-29T10:40:22.933Z,8.15
2023-03-29T10:50:22.793Z,8.33
2023-03-29T11:00:22.792Z,8.19
2023-03-29T11:10:22.916Z,8.34
2023-03-29T11:20:22.775Z,8.39
2023-03-29T11:30:22.814Z,9.35
2023-03-29T11:40:22.732Z,9.42
2023-03-29T11:50:22.764Z,9.66
2023-03-29T12:00:22.903Z,9.51
2023-03-29T12:10:22.799Z,9.57
2023-03-29T12:20:22.855Z,9.97
2023-03-29T12:30:22.929Z,10.60
2023-03-29T12:40:22.874Z,10.50
2023-03-29T12:50:22.748Z,11.12
2023-03-29T13:00:22.659Z,11.14
2023-03-29T13:10:22.997Z,11.12
2023-03-29T13:20:22.855Z,11.37
2023-03-29T13:30:22.735Z,11.44
2023-03-29T13:40:23.024Z,11.29
2023-03-29T13:50:22.844Z,10.17
2023-03-29T14:00:22.873Z,9.73
2023-03-29T14:10:22.986Z,9.74
2023-03-29T14:20:22.781Z,9.53
2023-03-29T14:30:22.907Z,10.12
2023-03-29T14:40:22.971Z,10.23
2023-03-29T14:50:23.140Z,10.54
2023-03-29T15:00:23.098Z,10.53
2023-03-29T15:10:23.214Z,10.42
2023-03-29T15:20:23.416Z,10.27
2023-03-29T15:30:23.655Z,10.29
2023-03-29T15:40:23.619Z,10.28
2023-03-29T15:50:23.555Z,10.30
2023-03-29T16:00:23.399Z,10.30
2023-03-29T16:10:23.431Z,10.27
2023-03-29T16:20:23.419Z,10.24
2023-03-29T16:30:23.592Z,10.29
2023-03-29T16:40:23.447Z,10.30
2023-03-29T16:50:23.734Z,10.29
2023-03-29T17:00:23.409Z,10.26
2023-03-29T17:10:23.644Z,10.22
2023-03-29T17:20:23.822Z,10.20
2023-03-29T17:30:23.574Z,10.14
2023-03-29T17:40:23.484Z,9.82
2023-03-29T17:50:23.625Z,9.63
2023-03-29T18:00:23.688Z,9.41
2023-03-29T18:10:23.762Z,9.35
2023-03-29T18:20:23.599Z,9.37
2023-03-29T18:30:23.766Z,9.32
2023-03-29T18:40:23.654Z,9.11
2023-03-29T18:50:23.903Z,8.84
2023-03-29T19:00:23.901Z,8.76
2023-03-29T19:10:24.140Z,8.96
2023-03-29T19:20:24.444Z,8.94
